createdAt,value
2022-11-25T13:16:09.850Z,4.68
2022-11-25T13:18:42.318Z,4.22
2022-11-25T13:21:14.024Z,3.85
2022-11-25T13:23:49.343Z,5.28
2022-11-25T13:26:29.022Z,5.43
2022-11-25T13:28:57.399Z,4.97
2022-11-25T13:31:31.850Z,5.95
2022-11-25T13:33:58.613Z,5.03
2022-11-25T13:36:43.948Z,5.63
2022-11-25T13:39:28.770Z,6.38
2022-11-25T13:42:16.711Z,8.15
2022-11-25T13:44:53.914Z,7.32
2022-11-25T13:47:42.849Z,6.57
2022-11-25T13:50:20.468Z,8.00
2022-11-25T13:53:03.224Z,7.50
2022-11-25T13:55:40.395Z,5.75
2022-11-25T13:58:10.221Z,5.63
2022-11-25T14:00:36.918Z,5.72
2022-11-25T14:03:19.895Z,6.05
2022-11-25T14:06:18.378Z,5.90
2022-11-25T14:09:05.004Z,5.40
2022-11-25T14:12:04.590Z,5.43
2022-11-25T14:15:02.360Z,5.97
2022-11-25T14:17:56.108Z,5.75
2022-11-25T14:20:28.451Z,5.60
2022-11-25T14:23:35.650Z,6.07
2022-11-25T14:26:27.053Z,5.35
2022-11-25T14:29:05.207Z,5.15
2022-11-25T14:31:53.560Z,6.28
2022-11-25T14:34:24.555Z,5.70
2022-11-25T14:37:00.734Z,6.03
2022-11-25T14:39:58.311Z,6.05
2022-11-25T14:42:35.403Z,5.00
2022-11-25T14:45:03.222Z,5.30
2022-11-25T14:47:39.163Z,5.43
2022-11-25T14:53:10.018Z,5.50
2022-11-25T14:55:38.274Z,6.03
2022-11-25T14:58:05.186Z,5.07
2022-11-25T15:00:32.020Z,7.82
2022-11-25T15:03:06.404Z,10.68
2022-11-25T15:05:39.041Z,6.90
2022-11-25T15:08:17.885Z,7.10
2022-11-25T15:11:00.431Z,6.30
2022-11-25T15:13:41.324Z,5.75
2022-11-25T15:16:16.809Z,5.35
2022-11-25T15:18:58.829Z,5.53
2022-11-25T15:22:07.036Z,6.50
2022-11-25T15:24:33.366Z,6.07
2022-11-25T15:27:02.824Z,6.28
2022-11-25T15:29:31.405Z,7.10
2022-11-25T15:32:00.104Z,7.22
2022-11-25T15:34:29.785Z,7.45
2022-11-25T15:37:01.042Z,7.10
2022-11-25T15:39:27.995Z,8.32
2022-11-25T15:42:24.652Z,12.30
2022-11-25T15:45:05.300Z,8.68
2022-11-25T15:47:36.783Z,7.22
2022-11-25T15:50:20.524Z,7.15
2022-11-25T15:52:56.542Z,8.30
2022-11-25T15:55:38.894Z,7.75
2022-11-25T15:58:21.116Z,8.20
2022-11-25T16:01:20.015Z,9.75
2022-11-25T16:03:48.119Z,8.05
2022-11-25T16:06:28.637Z,8.57
2022-11-25T16:09:01.698Z,9.10
2022-11-25T16:14:28.970Z,9.00
2022-11-25T16:17:07.677Z,10.13
2022-11-25T16:19:41.547Z,10.00
2022-11-25T16:22:18.861Z,10.55
2022-11-25T16:25:01.748Z,11.90
2022-11-25T16:27:29.939Z,12.13
2022-11-25T16:30:05.705Z,10.32
2022-11-25T16:32:34.307Z,11.02
2022-11-25T16:35:16.724Z,12.15
2022-11-25T16:37:48.754Z,13.32
2022-11-25T16:40:18.475Z,12.07
2022-11-25T16:42:50.161Z,11.02
2022-11-25T16:45:36.588Z,8.45
2022-11-25T16:48:21.058Z,10.48
2022-11-25T16:50:48.919Z,12.38
2022-11-25T16:53:15.871Z,17.50
2022-11-25T16:55:45.433Z,12.82
2022-11-25T16:58:32.563Z,12.05
2022-11-25T17:00:59.350Z,11.20
2022-11-25T17:03:26.694Z,11.32
2022-11-25T17:05:55.112Z,9.85
2022-11-25T17:08:22.381Z,10.05
2022-11-25T17:10:49.819Z,10.35
2022-11-25T17:13:24.055Z,8.70
2022-11-25T17:15:51.007Z,9.85
2022-11-25T17:18:19.184Z,10.45
2022-11-25T17:20:46.861Z,9.43
2022-11-25T17:23:17.005Z,9.60
2022-11-25T17:25:48.684Z,9.50
2022-11-25T17:28:20.685Z,10.23
2022-11-25T17:30:48.503Z,8.50
2022-11-25T17:33:18.756Z,10.10
2022-11-25T17:35:48.434Z,9.40
2022-11-25T17:38:20.814Z,11.63
2022-11-25T17:40:51.212Z,11.05
2022-11-25T17:43:20.116Z,9.48
2022-11-25T17:45:47.594Z,10.63
2022-11-25T17:48:18.275Z,10.52
2022-11-25T17:50:46.830Z,10.95
2022-11-25T17:53:13.681Z,9.82
2022-11-25T17:55:41.783Z,10.30
2022-11-25T17:58:10.570Z,10.18
2022-11-25T18:00:39.632Z,10.52
2022-11-25T18:03:14.228Z,9.93
2022-11-25T18:05:41.233Z,10.68
2022-11-25T18:08:08.440Z,12.45
2022-11-25T18:10:35.474Z,11.40
2022-11-25T18:13:02.942Z,10.73
2022-11-25T18:15:33.959Z,10.02
2022-11-25T18:18:11.209Z,9.00
2022-11-25T18:20:38.013Z,10.43
2022-11-25T18:23:09.550Z,9.27
2022-11-25T18:25:36.468Z,10.65
2022-11-25T18:28:04.567Z,11.30
2022-11-25T18:30:34.540Z,15.10
2022-11-25T18:33:02.179Z,15.75
2022-11-25T18:35:36.657Z,15.07
2022-11-25T18:38:04.667Z,13.07
2022-11-25T18:40:32.233Z,10.60
2022-11-25T18:43:02.523Z,13.35
2022-11-25T18:45:34.237Z,16.40
2022-11-25T18:48:01.097Z,11.75
2022-11-25T18:50:28.431Z,15.70
2022-11-25T18:52:55.281Z,11.98
2022-11-25T18:55:23.485Z,12.02
2022-11-25T18:57:52.059Z,15.85
2022-11-25T19:00:33.032Z,11.98
2022-11-25T19:03:00.378Z,10.60
2022-11-25T19:05:32.087Z,11.73
2022-11-25T19:07:58.983Z,11.30
2022-11-25T19:10:31.216Z,14.82
2022-11-25T19:13:01.858Z,13.67
2022-11-25T19:15:28.831Z,10.57
2022-11-25T19:18:01.810Z,11.13
2022-11-25T19:23:00.830Z,9.82
2022-11-25T19:25:28.446Z,10.00
2022-11-25T19:27:58.818Z,14.93
2022-11-25T19:30:31.136Z,10.38
2022-11-25T19:33:01.323Z,10.65
2022-11-25T19:35:37.990Z,11.45
2022-11-25T19:38:25.185Z,10.30
2022-11-25T19:40:53.906Z,10.27
2022-11-25T19:43:22.600Z,10.65
2022-11-25T19:45:50.374Z,13.85
2022-11-25T19:48:19.618Z,12.10
2022-11-25T19:50:49.302Z,11.35
2022-11-25T19:53:21.410Z,11.60
2022-11-25T19:55:48.813Z,8.80
2022-11-25T19:58:15.769Z,12.25
2022-11-25T20:00:44.164Z,11.23
2022-11-25T20:03:31.610Z,12.15
2022-11-25T20:05:58.933Z,11.85
2022-11-25T20:08:28.772Z,12.70
2022-11-25T20:10:56.750Z,12.48
2022-11-25T20:13:25.821Z,11.60
2022-11-25T20:15:53.771Z,11.68
2022-11-25T20:18:23.924Z,13.65
2022-11-25T20:21:01.496Z,13.25
2022-11-25T20:23:43.929Z,13.18
2022-11-25T20:26:37.698Z,11.57
2022-11-25T20:29:23.595Z,13.15
2022-11-25T20:31:56.008Z,13.98
2022-11-25T20:34:22.914Z,13.43
2022-11-25T20:36:49.801Z,14.05
2022-11-25T20:39:19.309Z,14.32
2022-11-25T20:41:52.965Z,13.90
2022-11-25T20:44:20.803Z,14.38
2022-11-25T20:46:48.086Z,13.80
2022-11-25T20:49:28.224Z,14.30
2022-11-25T20:51:56.739Z,15.40
2022-11-25T20:54:26.158Z,15.05
2022-11-25T20:56:53.026Z,15.13
2022-11-25T20:59:23.544Z,14.90
2022-11-25T21:01:51.457Z,14.25
2022-11-25T21:04:18.456Z,15.80
2022-11-25T21:06:45.507Z,14.93
2022-11-25T21:09:19.543Z,15.20
2022-11-25T21:11:48.057Z,14.13
2022-11-25T21:14:18.114Z,13.35
2022-11-25T21:16:46.090Z,13.52
2022-11-25T21:19:13.035Z,14.27
2022-11-25T21:21:44.361Z,12.50
2022-11-25T21:24:22.992Z,14.35
2022-11-25T21:26:50.581Z,13.15
2022-11-25T21:31:45.630Z,14.73
2022-11-25T21:34:13.793Z,13.60
2022-11-25T21:36:43.052Z,11.85
2022-11-25T21:39:30.273Z,12.98
2022-11-25T21:42:02.615Z,12.75
2022-11-25T21:44:39.843Z,13.20
2022-11-25T21:47:15.446Z,12.73
2022-11-25T21:49:42.738Z,11.70
2022-11-25T21:52:10.296Z,13.05
2022-11-25T21:54:37.233Z,12.20
2022-11-25T21:57:04.473Z,13.52
2022-11-25T21:59:32.151Z,12.63
2022-11-25T22:01:58.993Z,12.35
2022-11-25T22:04:25.887Z,12.00
2022-11-25T22:06:54.080Z,12.50
2022-11-25T22:09:20.939Z,11.93
2022-11-25T22:11:50.473Z,11.57
2022-11-25T22:14:34.495Z,12.45
2022-11-25T22:17:05.168Z,11.88
2022-11-25T22:19:32.878Z,12.05
2022-11-25T22:21:59.847Z,12.60
2022-11-25T22:24:26.840Z,11.48
2022-11-25T22:26:57.713Z,12.38
2022-11-25T22:29:31.673Z,12.40
2022-11-25T22:31:58.570Z,12.18
2022-11-25T22:34:25.584Z,12.40
2022-11-25T22:36:52.577Z,12.25
2022-11-25T22:39:25.398Z,11.57
2022-11-25T22:42:02.810Z,10.85
2022-11-25T22:44:40.177Z,11.05
2022-11-25T22:47:07.794Z,11.90
2022-11-25T22:49:45.338Z,13.35
2022-11-25T22:52:25.428Z,12.85
2022-11-25T22:54:52.572Z,14.77
2022-11-25T22:57:19.784Z,11.90
2022-11-25T22:59:46.785Z,12.40
2022-11-25T23:02:28.426Z,13.35
2022-11-25T23:04:58.169Z,12.57
2022-11-25T23:07:25.591Z,12.02
2022-11-25T23:09:52.748Z,12.75
2022-11-25T23:12:19.867Z,11.20
2022-11-25T23:14:46.724Z,12.30
2022-11-25T23:17:25.332Z,13.90
2022-11-25T23:19:53.187Z,14.32
2022-11-25T23:22:20.345Z,15.55
2022-11-25T23:24:48.989Z,14.63
2022-11-25T23:27:16.367Z,15.60
2022-11-25T23:29:45.558Z,13.82
2022-11-25T23:32:19.718Z,17.10
2022-11-25T23:34:50.020Z,16.40
2022-11-25T23:37:16.907Z,15.93
2022-11-25T23:39:50.641Z,16.25
2022-11-25T23:42:19.462Z,15.52
2022-11-25T23:44:46.772Z,16.05
2022-11-25T23:47:18.798Z,15.25
2022-11-25T23:49:50.309Z,15.80
2022-11-25T23:52:23.067Z,14.10
2022-11-25T23:54:51.480Z,14.77
2022-11-25T23:57:23.140Z,13.30
2022-11-25T23:59:51.495Z,14.85
